Tuesday, January 22, 2019, 9:01 PM GMT
Back to Local

CWNE, North Point, Prince Edward Island

Location: , , Canada Lat: 47.083
Local Time: 9:01 PM GMT (21:01 GMT) Lon: -64
Time Zone: GMT Elev: 49 ft

Show me the last for .
Show Coded

Time T Td Feel RH Dir Speed Gust Alt SLP Vis Weather Sky Remarks
2019-01-22 20:00 18 11 - 72 - Calm - - 29.89 0 None
2019-01-22 19:00 16 9 - 72 - Calm - - 29.85 0 None
2019-01-22 18:00 15 8 - 72 - Calm - - 29.83 0 None
2019-01-22 17:00 14 7 - 74 - Calm - - 29.80 0 None
2019-01-22 16:00 13 6 - 74 - Calm - - 29.79 0 None
2019-01-22 15:00 11 6 - 77 280° 1 - - 29.77 0 None
2019-01-22 14:00 10 5 - 78 - Calm - - 29.74 0 None
2019-01-22 13:00 11 6 - 79 - Calm - - 29.73 0 None
2019-01-22 12:00 11 7 - 81 - Calm - - 29.71 0 None
2019-01-22 11:00 13 7 - 75 - Calm - - 29.68 0 None
2019-01-22 10:00 12 7 - 81 - Calm - - 29.66 0 None
2019-01-22 09:00 13 9 - 84 - Calm - - 29.64 0 None
2019-01-22 08:00 13 9 - 85 - Calm - - 29.62 0 1-hr Precip Total: 0.01"
2019-01-22 07:00 13 10 - 86 - Calm - - 29.61 0 None
2019-01-22 06:00 14 11 - 85 - Calm - - 29.60 0 None
2019-01-22 05:00 14 11 - 86 - Calm - - 29.58 0 None
2019-01-22 04:00 15 12 - 86 - Calm - - 29.56 0 None
2019-01-22 03:00 16 12 - 86 - Calm - - 29.55 0 None
2019-01-22 02:00 16 13 - 88 - Calm - - 29.54 0 1-hr Precip Total: 0.01"
2019-01-22 01:00 16 13 - 88 - Calm - - 29.55 0 None
2019-01-22 00:00 17 13 - 87 - Calm - - 29.55 0 None
2019-01-21 23:00 17 14 - 87 - Calm - - 29.53 0 None
2019-01-21 22:00 19 14 - 81 - Calm - - 29.51 0 None

Support USWX by starting your Amazon purchase here.